| time (UTC) | temp F | wind direction | speed MPH | gust MPH | rain 1hr in | rain 24hr in | rain mn in | humidity % | barometer mb |
| 20260507113503 | 72 | 75 | 2.0 | 14.0 | 0.00 | 0.00 | 0.00 | 78 | 1014.5 |
| 20260507113004 | 72 | 74 | 0.0 | 14.0 | 0.00 | 0.00 | 0.00 | 78 | 1014.4 |
| 20260507112503 | 72 | 0 | 0.0 | 0.0 | 0.00 | 0.00 | 0.00 | 78 | 1014.4 |
| 20260507112004 | 72 | 0 | 0.0 | 0.0 | 0.00 | 0.00 | 0.00 | 78 | 1014.4 |
| 20260507111504 | 72 | 53 | 0.0 | 10.0 | 0.00 | 0.00 | 0.00 | 79 | 1014.2 |
| 20260507111004 | 72 | 53 | 0.0 | 10.0 | 0.00 | 0.00 | 0.00 | 79 | 1014.3 |
| 20260507110503 | 72 | 0 | 0.0 | 0.0 | 0.00 | 0.00 | 0.00 | 79 | 1014.3 |
| 20260507110004 | 72 | 66 | 1.0 | 7.0 | 0.00 | 0.00 | 0.00 | 79 | 1014.3 |
| 20260507105503 | 72 | 63 | 0.0 | 9.0 | 0.00 | 0.00 | 0.00 | 79 | 1014.3 |
| 20260507105004 | 72 | 60 | 0.0 | 9.0 | 0.00 | 0.00 | 0.00 | 79 | 1014.3 |
| 20260507104504 | 72 | 80 | 0.0 | 4.0 | 0.00 | 0.00 | 0.00 | 79 | 1014.4 |
| 20260507103503 | 72 | 67 | 1.0 | 6.0 | 0.00 | 0.00 | 0.00 | 78 | 1014.5 |
| 20260507103004 | 72 | 68 | 1.0 | 7.0 | 0.00 | 0.00 | 0.00 | 78 | 1014.4 |
| 20260507102503 | 72 | 63 | 1.0 | 7.0 | 0.00 | 0.00 | 0.00 | 78 | 1014.4 |
| 20260507102004 | 72 | 63 | 0.0 | 7.0 | 0.00 | 0.00 | 0.00 | 77 | 1014.4 |
| 20260507101503 | 72 | 86 | 1.0 | 3.0 | 0.00 | 0.00 | 0.00 | 77 | 1014.2 |
| 20260507101003 | 72 | 77 | 2.0 | 11.0 | 0.00 | 0.00 | 0.00 | 77 | 1014.0 |
| 20260507100005 | 72 | 68 | 0.0 | 9.0 | 0.00 | 0.00 | 0.00 | 76 | 1014.1 |
| 20260507094504 | 73 | 0 | 0.0 | 0.0 | 0.00 | 0.00 | 0.00 | 76 | 1014.1 |
| 20260507094005 | 73 | 68 | 1.0 | 6.0 | 0.00 | 0.00 | 0.00 | 76 | 1014.0 |
| 20260507093004 | 73 | 70 | 1.0 | 9.0 | 0.00 | 0.00 | 0.00 | 75 | 1014.1 |
| 20260507092503 | 73 | 66 | 1.0 | 10.0 | 0.00 | 0.00 | 0.00 | 75 | 1014.0 |
| 20260507092003 | 73 | 66 | 0.0 | 10.0 | 0.00 | 0.00 | 0.00 | 74 | 1014.0 |
| 20260507091503 | 73 | 62 | 0.0 | 6.0 | 0.00 | 0.00 | 0.00 | 74 | 1013.9 |
| 20260507091003 | 73 | 62 | 0.0 | 6.0 | 0.00 | 0.00 | 0.00 | 74 | 1014.0 |
| 20260507090503 | 73 | 0 | 0.0 | 0.0 | 0.00 | 0.00 | 0.00 | 74 | 1013.8 |
| 20260507085503 | 74 | 0 | 0.0 | 0.0 | 0.00 | 0.00 | 0.00 | 73 | 1013.6 |
| 20260507085004 | 74 | 0 | 0.0 | 0.0 | 0.00 | 0.00 | 0.00 | 73 | 1013.8 |
| 20260507084504 | 74 | 0 | 0.0 | 0.0 | 0.00 | 0.00 | 0.00 | 74 | 1013.7 |
| 20260507084004 | 74 | 68 | 1.0 | 7.0 | 0.00 | 0.00 | 0.00 | 74 | 1013.8 |
| 20260507083503 | 74 | 71 | 0.0 | 9.0 | 0.00 | 0.00 | 0.00 | 75 | 1013.8 |
| 20260507083005 | 74 | 72 | 0.0 | 9.0 | 0.00 | 0.00 | 0.00 | 75 | 1013.9 |
| 20260507082503 | 75 | 0 | 0.0 | 0.0 | 0.00 | 0.00 | 0.00 | 75 | 1013.7 |
| 20260507082004 | 75 | 54 | 0.0 | 9.0 | 0.00 | 0.00 | 0.00 | 75 | 1013.9 |
| 20260507081503 | 75 | 54 | 0.0 | 9.0 | 0.00 | 0.00 | 0.00 | 75 | 1013.9 |
| 20260507081003 | 75 | 0 | 0.0 | 0.0 | 0.00 | 0.00 | 0.00 | 75 | 1014.0 |
| 20260507080503 | 75 | 74 | 0.0 | 3.0 | 0.00 | 0.00 | 0.00 | 75 | 1014.0 |
| 20260507075503 | 75 | 72 | 0.0 | 3.0 | 0.00 | 0.00 | 0.00 | 75 | 1014.1 |
| 20260507075003 | 76 | 79 | 0.0 | 5.0 | 0.00 | 0.00 | 0.00 | 75 | 1014.0 |
| 20260507074004 | 76 | 0 | 1.0 | 0.0 | 0.00 | 0.00 | 0.00 | 75 | 1014.0 |
| 20260507073503 | 76 | 64 | 1.0 | 11.0 | 0.00 | 0.00 | 0.00 | 74 | 1013.8 |
| 20260507073005 | 77 | 64 | 1.0 | 11.0 | 0.00 | 0.00 | 0.00 | 74 | 1013.9 |
| 20260507072502 | 78 | 64 | 1.0 | 6.0 | 0.00 | 0.00 | 0.00 | 75 | 1013.9 |
| 20260507072002 | 78 | 65 | 1.0 | 6.0 | 0.00 | 0.00 | 0.00 | 75 | 1013.8 |
| 20260507071503 | 78 | 72 | 0.0 | 8.0 | 0.00 | 0.00 | 0.00 | 75 | 1013.8 |
| 20260507071002 | 79 | 75 | 0.0 | 8.0 | 0.00 | 0.00 | 0.00 | 76 | 1013.8 |
| 20260507070007 | 80 | 66 | 0.0 | 7.0 | 0.00 | 0.00 | 0.00 | 76 | 1013.8 |
| 20260507065502 | 81 | 65 | 0.0 | 7.0 | 0.00 | 0.00 | 0.00 | 80 | 1013.7 |
| 20260507065002 | 81 | 0 | 0.0 | 0.0 | 0.00 | 0.00 | 0.00 | 85 | 1013.7 |
| 20260507064502 | 81 | 0 | 0.0 | 0.0 | 0.00 | 0.00 | 0.00 | 84 | 1013.6 |
| 20260507064002 | 82 | 0 | 0.0 | 0.0 | 0.00 | 0.00 | 0.00 | 84 | 1013.7 |
| 20260507063502 | 82 | 0 | 0.0 | 0.0 | 0.00 | 0.00 | 0.00 | 84 | 1013.8 |
| 20260507063003 | 82 | 0 | 0.0 | 0.0 | 0.00 | 0.00 | 0.00 | 84 | 1013.8 |
| 20260507062502 | 82 | 0 | 0.0 | 0.0 | 0.00 | 0.00 | 0.00 | 84 | 1013.8 |
| 20260507062002 | 82 | 0 | 1.0 | 0.0 | 0.00 | 0.00 | 0.00 | 84 | 1013.7 |
| 20260507061503 | 82 | 91 | 1.0 | 7.0 | 0.00 | 0.00 | 0.00 | 84 | 1013.7 |
| 20260507061003 | 82 | 93 | 0.0 | 7.0 | 0.00 | 0.00 | 0.00 | 83 | 1013.7 |
| 20260507060502 | 82 | 97 | 0.0 | 5.0 | 0.00 | 0.00 | 0.00 | 83 | 1013.6 |
| 20260507055502 | 82 | 0 | 0.0 | 0.0 | 0.00 | 0.00 | 0.00 | 83 | 1013.6 |
| 20260507055002 | 82 | 0 | 0.0 | 0.0 | 0.00 | 0.00 | 0.00 | 83 | 1013.7 |
| 20260507054502 | 82 | 0 | 0.0 | 0.0 | 0.00 | 0.00 | 0.00 | 83 | 1013.7 |
| 20260507054002 | 83 | 0 | 0.0 | 0.0 | 0.00 | 0.00 | 0.00 | 83 | 1013.6 |
| 20260507053502 | 83 | 0 | 0.0 | 0.0 | 0.00 | 0.00 | 0.00 | 82 | 1013.5 |
| 20260507053003 | 83 | 0 | 0.0 | 0.0 | 0.00 | 0.00 | 0.00 | 82 | 1013.6 |
| 20260507052502 | 83 | 0 | 0.0 | 0.0 | 0.00 | 0.00 | 0.00 | 82 | 1013.5 |
| 20260507051503 | 83 | 0 | 0.0 | 0.0 | 0.00 | 0.00 | 0.00 | 81 | 1013.4 |
| 20260507051002 | 83 | 0 | 0.0 | 0.0 | 0.00 | 0.00 | 0.00 | 81 | 1013.4 |
| 20260507050502 | 84 | 0 | 0.0 | 0.0 | 0.00 | 0.00 | 0.00 | 80 | 1013.3 |
| 20260507045502 | 84 | 0 | 0.0 | 0.0 | 0.00 | 0.00 | 0.00 | 79 | 1013.4 |
| 20260507045003 | 84 | 0 | 0.0 | 0.0 | 0.00 | 0.00 | 0.00 | 79 | 1013.3 |
| 20260507044502 | 84 | 0 | 0.0 | 0.0 | 0.00 | 0.00 | 0.00 | 79 | 1013.3 |
| 20260507044002 | 84 | 0 | 0.0 | 0.0 | 0.00 | 0.00 | 0.00 | 78 | 1013.3 |
| 20260507043002 | 85 | 92 | 0.0 | 1.0 | 0.00 | 0.00 | 0.00 | 77 | 1013.3 |
| 20260507042502 | 85 | 92 | 0.0 | 1.0 | 0.00 | 0.00 | 0.00 | 76 | 1013.2 |
| 20260507042002 | 85 | 0 | 0.0 | 0.0 | 0.00 | 0.00 | 0.00 | 75 | 1013.1 |
| 20260507041502 | 86 | 0 | 0.0 | 0.0 | 0.00 | 0.00 | 0.00 | 75 | 1013.1 |
| 20260507040503 | 86 | 0 | 0.0 | 0.0 | 0.00 | 0.00 | 0.00 | 74 | 1013.0 |
| 20260507040003 | 86 | 0 | 0.0 | 0.0 | 0.00 | 0.00 | 0.00 | 73 | 1012.8 |
| 20260507035502 | 86 | 0 | 0.0 | 0.0 | 0.00 | 0.00 | 0.00 | 73 | 1012.8 |
| 20260507035002 | 86 | 0 | 0.0 | 0.0 | 0.00 | 0.00 | 0.00 | 73 | 1012.6 |
| 20260507034503 | 86 | 0 | 1.0 | 0.0 | 0.00 | 0.00 | 0.00 | 72 | 1012.4 |
| 20260507034002 | 86 | 105 | 1.0 | 8.0 | 0.00 | 0.00 | 0.00 | 72 | 1012.4 |
| 20260507033502 | 87 | 104 | 2.0 | 8.0 | 0.00 | 0.00 | 0.00 | 71 | 1012.3 |
| 20260507033002 | 87 | 109 | 2.0 | 11.0 | 0.00 | 0.00 | 0.00 | 70 | 1012.2 |
| 20260507032002 | 87 | 107 | 1.0 | 10.0 | 0.00 | 0.00 | 0.00 | 70 | 1012.1 |
| 20260507031502 | 88 | 108 | 0.0 | 10.0 | 0.00 | 0.00 | 0.00 | 69 | 1012.1 |
| 20260507030502 | 88 | 0 | 0.0 | 0.0 | 0.00 | 0.00 | 0.00 | 67 | 1011.9 |
| 20260507030003 | 88 | 0 | 0.0 | 0.0 | 0.00 | 0.00 | 0.00 | 66 | 1011.7 |
| 20260507025502 | 89 | 0 | 0.0 | 0.0 | 0.00 | 0.00 | 0.00 | 64 | 1011.6 |
| 20260507025003 | 89 | 0 | 0.0 | 0.0 | 0.00 | 0.00 | 0.00 | 62 | 1011.4 |
| 20260507024503 | 89 | 0 | 0.0 | 0.0 | 0.00 | 0.00 | 0.00 | 61 | 1011.4 |
| 20260507024003 | 89 | 0 | 0.0 | 0.0 | 0.00 | 0.00 | 0.00 | 60 | 1011.3 |
| 20260507023503 | 89 | 0 | 0.0 | 0.0 | 0.00 | 0.00 | 0.00 | 60 | 1011.1 |
| 20260507023004 | 90 | 0 | 0.0 | 0.0 | 0.00 | 0.00 | 0.00 | 60 | 1011.1 |
| 20260507022502 | 90 | 0 | 0.0 | 0.0 | 0.00 | 0.00 | 0.00 | 60 | 1010.9 |
| 20260507022003 | 90 | 0 | 0.0 | 0.0 | 0.00 | 0.00 | 0.00 | 59 | 1010.9 |
| 20260507021503 | 90 | 0 | 0.0 | 0.0 | 0.00 | 0.00 | 0.00 | 59 | 1010.6 |
| 20260507020503 | 90 | 0 | 0.0 | 0.0 | 0.00 | 0.00 | 0.00 | 59 | 1010.4 |
| 20260507015002 | 90 | 0 | 0.0 | 0.0 | 0.00 | 0.00 | 0.00 | 59 | 1010.3 |
| 20260507013502 | 91 | 0 | 0.0 | 0.0 | 0.00 | 0.00 | 0.00 | 58 | 1010.1 |
| 20260507013003 | 91 | 0 | 0.0 | 0.0 | 0.00 | 0.00 | 0.00 | 58 | 1009.9 |
| 20260507012002 | 91 | 0 | 0.0 | 0.0 | 0.00 | 0.00 | 0.00 | 57 | 1009.7 |
| 20260507011502 | 91 | 0 | 1.0 | 0.0 | 0.00 | 0.00 | 0.00 | 56 | 1009.6 |
| 20260507010502 | 92 | 69 | 0.0 | 8.0 | 0.00 | 0.00 | 0.00 | 56 | 1009.5 |
| 20260507010004 | 92 | 0 | 0.0 | 0.0 | 0.00 | 0.00 | 0.00 | 56 | 1009.4 |
| 20260507005503 | 92 | 0 | 0.0 | 0.0 | 0.00 | 0.00 | 0.00 | 56 | 1009.3 |
| 20260507005002 | 92 | 0 | 0.0 | 0.0 | 0.00 | 0.00 | 0.00 | 55 | 1009.2 |
| 20260507004503 | 92 | 0 | 0.0 | 0.0 | 0.00 | 0.00 | 0.00 | 55 | 1009.1 |
| 20260507003503 | 93 | 52 | 1.0 | 1.0 | 0.00 | 0.00 | 0.00 | 54 | 1008.9 |
| 20260507003003 | 93 | 69 | 1.0 | 10.0 | 0.00 | 0.00 | 0.00 | 55 | 1009.1 |
| 20260507002502 | 93 | 69 | 1.0 | 10.0 | 0.00 | 0.00 | 0.00 | 55 | 1008.9 |
| 20260507002003 | 93 | 84 | 2.0 | 8.0 | 0.00 | 0.00 | 0.00 | 54 | 1008.7 |
| 20260507001503 | 93 | 81 | 3.0 | 10.0 | 0.00 | 0.00 | 0.00 | 53 | 1008.7 |
| 20260507001003 | 93 | 82 | 2.0 | 10.0 | 0.00 | 0.00 | 0.00 | 54 | 1008.6 |
| 20260507000502 | 93 | 88 | 1.0 | 13.0 | 0.00 | 0.00 | 0.00 | 54 | 1008.6 |
| 20260507000004 | 93 | 91 | 0.0 | 13.0 | 0.00 | 0.00 | 0.00 | 54 | 1008.5 |
| 20260506235502 | 94 | 0 | 0.0 | 0.0 | 0.00 | 0.00 | 0.00 | 53 | 1008.4 |
| 20260506235003 | 94 | 0 | 0.0 | 0.0 | 0.00 | 0.00 | 0.00 | 53 | 1008.3 |
| 20260506234502 | 94 | 43 | 0.0 | 5.0 | 0.00 | 0.00 | 0.00 | 52 | 1008.2 |
| 20260506234003 | 94 | 43 | 0.0 | 5.0 | 0.00 | 0.00 | 0.00 | 52 | 1008.2 |
| 20260506233502 | 94 | 65 | 1.0 | 9.0 | 0.00 | 0.00 | 0.00 | 52 | 1008.1 |
| 20260506233003 | 94 | 67 | 3.0 | 10.0 | 0.00 | 0.00 | 0.00 | 52 | 1008.1 |
| 20260506232503 | 94 | 65 | 4.0 | 12.0 | 0.00 | 0.00 | 0.00 | 51 | 1007.9 |
| 20260506232003 | 94 | 64 | 3.0 | 12.0 | 0.00 | 0.00 | 0.00 | 52 | 1007.8 |
| 20260506231002 | 94 | 63 | 0.0 | 7.0 | 0.00 | 0.00 | 0.00 | 52 | 1007.8 |
| 20260506230503 | 95 | 49 | 1.0 | 2.0 | 0.00 | 0.00 | 0.00 | 51 | 1007.9 |
| 20260506230003 | 94 | 64 | 1.0 | 12.0 | 0.00 | 0.00 | 0.00 | 52 | 1007.8 |
| 20260506224503 | 94 | 84 | 3.0 | 14.0 | 0.00 | 0.00 | 0.00 | 53 | 1007.9 |
| 20260506224003 | 94 | 84 | 1.0 | 14.0 | 0.00 | 0.00 | 0.00 | 52 | 1007.8 |
| 20260506223503 | 94 | 80 | 0.0 | 9.0 | 0.00 | 0.00 | 0.00 | 53 | 1007.9 |
| 20260506223003 | 94 | 0 | 1.0 | 0.0 | 0.00 | 0.00 | 0.00 | 53 | 1007.9 |
| 20260506222503 | 94 | 65 | 1.0 | 10.0 | 0.00 | 0.00 | 0.00 | 54 | 1007.9 |
| 20260506222003 | 94 | 67 | 0.0 | 11.0 | 0.00 | 0.00 | 0.00 | 54 | 1008.1 |
| 20260506221503 | 93 | 70 | 0.0 | 11.0 | 0.00 | 0.00 | 0.00 | 54 | 1008.0 |
| 20260506220503 | 93 | 71 | 1.0 | 10.0 | 0.00 | 0.00 | 0.00 | 55 | 1008.1 |
| 20260506220003 | 94 | 72 | 0.0 | 10.0 | 0.00 | 0.00 | 0.00 | 55 | 1008.3 |
| 20260506215502 | 93 | 98 | 0.0 | 2.0 | 0.00 | 0.00 | 0.00 | 56 | 1008.4 |
| 20260506215002 | 93 | 0 | 0.0 | 0.0 | 0.00 | 0.00 | 0.00 | 56 | 1008.4 |
| 20260506214503 | 93 | 0 | 1.0 | 0.0 | 0.00 | 0.00 | 0.00 | 57 | 1008.4 |
| 20260506213503 | 92 | 49 | 0.0 | 9.0 | 0.00 | 0.00 | 0.00 | 59 | 1008.4 |
| 20260506213003 | 92 | 51 | 0.0 | 9.0 | 0.00 | 0.00 | 0.00 | 59 | 1008.5 |
| 20260506212003 | 92 | 0 | 0.0 | 0.0 | 0.00 | 0.00 | 0.00 | 60 | 1008.8 |
| 20260506211503 | 91 | 62 | 0.0 | 1.0 | 0.00 | 0.00 | 0.00 | 61 | 1008.7 |
| 20260506211003 | 91 | 62 | 0.0 | 1.0 | 0.00 | 0.00 | 0.00 | 62 | 1008.9 |
| 20260506210503 | 91 | 0 | 0.0 | 0.0 | 0.00 | 0.00 | 0.00 | 61 | 1008.8 |
| 20260506210003 | 91 | 0 | 0.0 | 0.0 | 0.00 | 0.00 | 0.00 | 61 | 1008.9 |
| 20260506205003 | 90 | 52 | 2.0 | 6.0 | 0.00 | 0.00 | 0.00 | 62 | 1009.1 |
| 20260506204502 | 90 | 58 | 2.0 | 10.0 | 0.00 | 0.00 | 0.00 | 63 | 1009.1 |
| 20260506204003 | 90 | 66 | 1.0 | 10.0 | 0.00 | 0.00 | 0.00 | 63 | 1009.1 |
| 20260506203503 | 91 | 70 | 0.0 | 8.0 | 0.00 | 0.00 | 0.00 | 63 | 1009.3 |
| 20260506203003 | 91 | 0 | 0.0 | 0.0 | 0.00 | 0.00 | 0.00 | 62 | 1009.3 |
| 20260506202503 | 91 | 0 | 1.0 | 0.0 | 0.00 | 0.00 | 0.00 | 60 | 1009.4 |
| 20260506202002 | 92 | 20 | 1.0 | 6.0 | 0.00 | 0.00 | 0.00 | 61 | 1009.4 |
| 20260506201503 | 91 | 20 | 1.0 | 6.0 | 0.00 | 0.00 | 0.00 | 62 | 1009.5 |
| 20260506201002 | 91 | 18 | 1.0 | 7.0 | 0.00 | 0.00 | 0.00 | 63 | 1009.6 |
| 20260506200003 | 90 | 39 | 0.0 | 9.0 | 0.00 | 0.00 | 0.00 | 63 | 1009.6 |
| 20260506195503 | 90 | 0 | 0.0 | 0.0 | 0.00 | 0.00 | 0.00 | 64 | 1009.6 |
| 20260506195003 | 90 | 0 | 0.0 | 0.0 | 0.00 | 0.00 | 0.00 | 63 | 1009.8 |
| 20260506194503 | 90 | 0 | 0.0 | 0.0 | 0.00 | 0.00 | 0.00 | 64 | 1009.9 |
| 20260506194003 | 90 | 0 | 0.0 | 0.0 | 0.00 | 0.00 | 0.00 | 64 | 1009.9 |
| 20260506193503 | 89 | 0 | 0.0 | 0.0 | 0.00 | 0.00 | 0.00 | 64 | 1009.9 |
| 20260506193003 | 89 | 0 | 0.0 | 0.0 | 0.00 | 0.00 | 0.00 | 64 | 1010.0 |
| 20260506192003 | 90 | 0 | 0.0 | 0.0 | 0.00 | 0.00 | 0.00 | 63 | 1010.2 |
| 20260506190502 | 89 | 0 | 0.0 | 0.0 | 0.00 | 0.00 | 0.00 | 64 | 1010.3 |
| 20260506185502 | 89 | 0 | 0.0 | 0.0 | 0.00 | 0.00 | 0.00 | 66 | 1010.5 |
| 20260506185002 | 89 | 0 | 0.0 | 0.0 | 0.00 | 0.00 | 0.00 | 66 | 1010.6 |
| 20260506184503 | 88 | 0 | 0.0 | 0.0 | 0.00 | 0.00 | 0.00 | 68 | 1010.6 |
| 20260506184003 | 88 | 311 | 0.0 | 4.0 | 0.00 | 0.00 | 0.00 | 68 | 1010.6 |
| 20260506183503 | 88 | 311 | 0.0 | 4.0 | 0.00 | 0.00 | 0.00 | 68 | 1010.6 |
| 20260506183003 | 88 | 0 | 0.0 | 0.0 | 0.00 | 0.00 | 0.00 | 68 | 1010.8 |
| 20260506182503 | 88 | 0 | 0.0 | 0.0 | 0.00 | 0.00 | 0.00 | 67 | 1010.7 |
| 20260506182003 | 88 | 0 | 0.0 | 0.0 | 0.00 | 0.00 | 0.00 | 68 | 1010.7 |
| 20260506181502 | 88 | 0 | 0.0 | 0.0 | 0.00 | 0.00 | 0.00 | 68 | 1010.7 |
| 20260506181003 | 88 | 0 | 0.0 | 0.0 | 0.00 | 0.00 | 0.00 | 68 | 1010.7 |
| 20260506180503 | 88 | 0 | 0.0 | 0.0 | 0.00 | 0.00 | 0.00 | 68 | 1010.8 |
| 20260506180004 | 87 | 0 | 0.0 | 0.0 | 0.00 | 0.00 | 0.00 | 69 | 1010.9 |
| 20260506175003 | 87 | 0 | 0.0 | 0.0 | 0.00 | 0.00 | 0.00 | 70 | 1010.9 |
| 20260506174503 | 87 | 0 | 0.0 | 0.0 | 0.00 | 0.00 | 0.00 | 70 | 1010.9 |
| 20260506174003 | 86 | 0 | 0.0 | 0.0 | 0.00 | 0.00 | 0.00 | 71 | 1010.8 |
| 20260506173003 | 86 | 0 | 0.0 | 0.0 | 0.00 | 0.00 | 0.00 | 71 | 1011.1 |
| 20260506172502 | 86 | 0 | 0.0 | 0.0 | 0.00 | 0.00 | 0.00 | 71 | 1011.0 |
| 20260506172003 | 86 | 0 | 0.0 | 0.0 | 0.00 | 0.00 | 0.00 | 71 | 1011.1 |
| 20260506171502 | 86 | 0 | 0.0 | 0.0 | 0.00 | 0.00 | 0.00 | 71 | 1011.1 |
| 20260506171003 | 86 | 0 | 0.0 | 0.0 | 0.00 | 0.00 | 0.00 | 72 | 1011.0 |
| 20260506170502 | 86 | 0 | 0.0 | 0.0 | 0.00 | 0.00 | 0.00 | 72 | 1011.0 |
| 20260506170004 | 86 | 0 | 0.0 | 0.0 | 0.00 | 0.00 | 0.00 | 72 | 1011.1 |
| 20260506165003 | 86 | 0 | 0.0 | 0.0 | 0.00 | 0.00 | 0.00 | 72 | 1010.9 |
| 20260506163503 | 85 | 0 | 0.0 | 0.0 | 0.00 | 0.00 | 0.00 | 73 | 1010.9 |
| 20260506163004 | 85 | 0 | 0.0 | 0.0 | 0.00 | 0.00 | 0.00 | 73 | 1010.9 |
| 20260506162003 | 84 | 0 | 0.0 | 0.0 | 0.00 | 0.00 | 0.00 | 74 | 1010.8 |
| 20260506161503 | 84 | 0 | 0.0 | 0.0 | 0.00 | 0.00 | 0.00 | 74 | 1010.7 |
| 20260506161003 | 84 | 0 | 0.0 | 0.0 | 0.00 | 0.00 | 0.00 | 74 | 1010.6 |
| 20260506160503 | 84 | 0 | 0.0 | 0.0 | 0.00 | 0.00 | 0.00 | 74 | 1010.6 |
| 20260506160003 | 85 | 0 | 0.0 | 0.0 | 0.00 | 0.00 | 0.00 | 74 | 1010.6 |
| 20260506155503 | 84 | 0 | 0.0 | 0.0 | 0.00 | 0.00 | 0.00 | 75 | 1010.5 |
| 20260506155003 | 84 | 0 | 0.0 | 0.0 | 0.00 | 0.00 | 0.00 | 75 | 1010.6 |
| 20260506154503 | 84 | 0 | 0.0 | 0.0 | 0.00 | 0.00 | 0.00 | 75 | 1010.5 |
| 20260506153003 | 84 | 0 | 0.0 | 0.0 | 0.00 | 0.00 | 0.00 | 75 | 1010.3 |
| 20260506152503 | 84 | 0 | 0.0 | 0.0 | 0.00 | 0.00 | 0.00 | 76 | 1010.3 |
| 20260506152003 | 84 | 0 | 0.0 | 0.0 | 0.00 | 0.00 | 0.00 | 75 | 1010.2 |
| 20260506151503 | 84 | 0 | 0.0 | 0.0 | 0.00 | 0.00 | 0.00 | 76 | 1010.2 |
| 20260506151003 | 84 | 0 | 0.0 | 0.0 | 0.00 | 0.00 | 0.00 | 76 | 1010.1 |
| 20260506150504 | 84 | 0 | 0.0 | 0.0 | 0.00 | 0.00 | 0.00 | 77 | 1010.0 |
| 20260506150003 | 83 | 0 | 0.0 | 0.0 | 0.00 | 0.00 | 0.00 | 78 | 1010.0 |
| 20260506144503 | 82 | 0 | 0.0 | 0.0 | 0.00 | 0.00 | 0.00 | 79 | 1010.1 |
| 20260506144004 | 82 | 129 | 0.0 | 6.0 | 0.00 | 0.00 | 0.00 | 81 | 1010.0 |
| 20260506143503 | 82 | 129 | 0.0 | 6.0 | 0.00 | 0.00 | 0.00 | 80 | 1009.9 |
| 20260506143003 | 82 | 0 | 0.0 | 0.0 | 0.00 | 0.00 | 0.00 | 81 | 1010.0 |
| 20260506142503 | 81 | 0 | 0.0 | 0.0 | 0.00 | 0.00 | 0.00 | 82 | 1009.9 |
| 20260506142004 | 81 | 0 | 0.0 | 0.0 | 0.00 | 0.00 | 0.00 | 82 | 1009.9 |
| 20260506141504 | 81 | 0 | 0.0 | 0.0 | 0.00 | 0.00 | 0.00 | 82 | 1009.9 |
| 20260506141003 | 80 | 0 | 0.0 | 0.0 | 0.00 | 0.00 | 0.00 | 82 | 1009.9 |
| 20260506140004 | 80 | 0 | 0.0 | 0.0 | 0.00 | 0.00 | 0.00 | 82 | 1009.7 |
| 20260506135504 | 80 | 0 | 0.0 | 0.0 | 0.00 | 0.00 | 0.00 | 82 | 1009.6 |
| 20260506135003 | 80 | 0 | 0.0 | 0.0 | 0.00 | 0.00 | 0.00 | 83 | 1009.6 |
| 20260506134503 | 80 | 0 | 0.0 | 0.0 | 0.00 | 0.00 | 0.00 | 82 | 1009.6 |
| 20260506134003 | 80 | 0 | 0.0 | 0.0 | 0.00 | 0.00 | 0.00 | 82 | 1009.6 |
| 20260506133503 | 80 | 0 | 0.0 | 0.0 | 0.00 | 0.00 | 0.00 | 82 | 1009.6 |
| 20260506133003 | 80 | 0 | 0.0 | 0.0 | 0.00 | 0.00 | 0.00 | 82 | 1009.5 |
| 20260506132503 | 80 | 0 | 0.0 | 0.0 | 0.00 | 0.00 | 0.00 | 82 | 1009.5 |
| 20260506131503 | 80 | 0 | 0.0 | 0.0 | 0.00 | 0.00 | 0.00 | 82 | 1009.7 |
| 20260506131003 | 80 | 0 | 0.0 | 0.0 | 0.00 | 0.00 | 0.00 | 82 | 1009.7 |
| 20260506125503 | 80 | 0 | 0.0 | 0.0 | 0.00 | 0.00 | 0.00 | 82 | 1009.3 |
| 20260506124004 | 80 | 0 | 0.0 | 0.0 | 0.00 | 0.00 | 0.00 | 82 | 1009.1 |
| 20260506123503 | 80 | 0 | 0.0 | 0.0 | 0.00 | 0.00 | 0.00 | 82 | 1009.0 |
| 20260506122003 | 80 | 0 | 0.0 | 0.0 | 0.00 | 0.00 | 0.00 | 82 | 1008.9 |
| 20260506121503 | 80 | 106 | 0.0 | 5.0 | 0.00 | 0.00 | 0.00 | 82 | 1008.8 |
| 20260506121003 | 80 | 106 | 0.0 | 5.0 | 0.00 | 0.00 | 0.00 | 82 | 1008.9 |
| 20260506120503 | 80 | 0 | 0.0 | 0.0 | 0.00 | 0.00 | 0.00 | 82 | 1008.8 |
| 20260506115503 | 80 | 85 | 0.0 | 1.0 | 0.00 | 0.00 | 0.00 | 82 | 1008.8 |
| 20260506115004 | 80 | 85 | 1.0 | 1.0 | 0.00 | 0.00 | 0.00 | 82 | 1008.7 |